Time,TemperatureF,DewpointF,PressureIn,WindDirection,WindDirectionDegrees,WindSpeedMPH,WindSpeedGustMPH,Humidity,HourlyPrecipIn,Conditions,Clouds,dailyrainin,SolarRadiationWatts/m^2,SoftwareType,DateUTC
2014-01-01 00:02:00,34.0,31.0,-100.00,North,-999,0.0,2.0,87,0.00,,,-99.99,0.000000,,2014-01-01 05:02:00,
2014-01-01 00:22:00,34.0,31.0,-100.00,North,-999,0.0,2.0,87,0.00,,,-99.99,0.000000,,2014-01-01 05:22:00,
2014-01-01 00:33:00,34.0,31.0,-100.00,North,-999,0.0,2.0,87,0.00,,,-99.99,0.000000,,2014-01-01 05:33:00,
2014-01-01 00:43:00,34.0,31.0,-100.00,North,-999,0.0,2.0,87,0.00,,,-99.99,0.000000,,2014-01-01 05:43:00,
2014-01-01 00:53:00,34.0,31.0,-100.00,North,-999,0.0,2.0,87,0.00,,,-99.99,0.000000,,2014-01-01 05:53:00,
2014-01-01 01:02:00,34.0,31.0,-100.00,WNW,286,2.0,3.0,87,0.00,,,-99.99,0.000000,,2014-01-01 06:02:00,
2014-01-01 01:42:00,34.0,31.0,-100.00,WNW,286,2.0,3.0,87,0.00,,,-99.99,0.000000,,2014-01-01 06:42:00,
2014-01-01 01:53:00,34.0,31.0,-100.00,WNW,286,2.0,3.0,87,0.00,,,-99.99,0.000000,,2014-01-01 06:53:00,
2014-01-01 02:02:00,34.0,32.0,-100.00,WNW,303,2.0,3.0,93,0.00,,,-99.99,0.000000,,2014-01-01 07:02:00,
2014-01-01 02:42:00,34.0,32.0,-100.00,WNW,303,2.0,3.0,93,0.00,,,-99.99,0.000000,,2014-01-01 07:42:00,
2014-01-01 02:52:00,34.0,32.0,-100.00,WNW,303,2.0,3.0,93,0.00,,,-99.99,0.000000,,2014-01-01 07:52:00,
2014-01-01 03:02:00,34.0,31.0,-100.00,ENE,68,1.0,4.0,90,0.00,,,-99.99,0.000000,,2014-01-01 08:02:00,
2014-01-01 03:22:00,34.0,31.0,-100.00,ENE,68,1.0,4.0,90,0.00,,,-99.99,0.000000,,2014-01-01 08:22:00,
2014-01-01 03:32:00,34.0,31.0,-100.00,ENE,68,1.0,4.0,90,0.00,,,-99.99,0.000000,,2014-01-01 08:32:00,
2014-01-01 03:42:00,34.0,31.0,-100.00,ENE,68,1.0,4.0,90,0.00,,,-99.99,0.000000,,2014-01-01 08:42:00,
2014-01-01 03:52:00,34.0,31.0,-100.00,ENE,68,1.0,4.0,90,0.00,,,-99.99,0.000000,,2014-01-01 08:52:00,
2014-01-01 04:02:00,35.0,30.0,-100.00,NW,325,1.0,3.0,83,0.00,,,-99.99,0.000000,,2014-01-01 09:02:00,
2014-01-01 04:43:00,35.0,30.0,-100.00,NW,325,1.0,3.0,83,0.00,,,-99.99,0.000000,,2014-01-01 09:43:00,
2014-01-01 04:53:00,35.0,30.0,-100.00,NW,325,1.0,3.0,83,0.00,,,-99.99,0.000000,,2014-01-01 09:53:00,
2014-01-01 05:02:00,35.0,31.0,-100.00,NW,309,2.0,4.0,84,0.00,,,-99.99,0.000000,,2014-01-01 10:02:00,
2014-01-01 05:23:00,35.0,31.0,-100.00,NW,309,2.0,4.0,84,0.00,,,-99.99,0.000000,,2014-01-01 10:23:00,
2014-01-01 05:34:00,35.0,31.0,-100.00,NW,309,2.0,4.0,84,0.00,,,-99.99,0.000000,,2014-01-01 10:34:00,
2014-01-01 05:43:00,35.0,31.0,-100.00,NW,309,2.0,4.0,84,0.00,,,-99.99,0.000000,,2014-01-01 10:43:00,
2014-01-01 05:53:00,35.0,31.0,-100.00,NW,309,2.0,4.0,84,0.00,,,-99.99,0.000000,,2014-01-01 10:53:00,
2014-01-01 06:02:00,35.0,32.0,-100.00,North,358,1.0,4.0,87,0.00,,,-99.99,0.000000,,2014-01-01 11:02:00,
2014-01-01 06:42:00,35.0,32.0,-100.00,North,358,1.0,4.0,87,0.00,,,-99.99,0.000000,,2014-01-01 11:42:00,
2014-01-01 06:53:00,35.0,32.0,-100.00,North,358,1.0,4.0,87,0.00,,,-99.99,0.000000,,2014-01-01 11:53:00,
2014-01-01 07:02:00,35.0,33.0,-100.00,ENE,71,1.0,4.0,91,0.00,,,-99.99,0.000000,,2014-01-01 12:02:00,
2014-01-01 07:42:00,35.0,33.0,-100.00,ENE,71,1.0,4.0,91,0.00,,,-99.99,0.000000,,2014-01-01 12:42:00,
2014-01-01 07:52:00,35.0,33.0,-100.00,ENE,71,1.0,4.0,91,0.00,,,-99.99,0.000000,,2014-01-01 12:52:00,
2014-01-01 08:42:00,35.0,32.0,-100.00,NNW,340,2.0,4.0,88,0.00,,,-99.99,1.000000,,2014-01-01 13:42:00,
2014-01-01 08:52:00,35.0,32.0,-100.00,NNW,340,2.0,4.0,88,0.00,,,-99.99,1.000000,,2014-01-01 13:52:00,
2014-01-01 09:01:00,35.0,32.0,-100.00,NNW,340,2.0,4.0,88,0.00,,,-99.99,1.000000,,2014-01-01 14:01:00,
2014-01-01 09:02:00,36.0,33.0,-100.00,NNW,337,3.0,4.0,90,0.00,,,-99.99,40.000000,,2014-01-01 14:02:00,
2014-01-01 09:42:00,36.0,33.0,-100.00,NNW,337,3.0,4.0,90,0.00,,,-99.99,40.000000,,2014-01-01 14:42:00,
2014-01-01 09:53:00,36.0,33.0,-100.00,NNW,337,3.0,4.0,90,0.00,,,-99.99,40.000000,,2014-01-01 14:53:00,
2014-01-01 10:02:00,40.0,35.0,-100.00,NE,39,2.0,5.0,83,0.00,,,-99.99,111.000000,,2014-01-01 15:02:00,
2014-01-01 10:22:00,40.0,35.0,-100.00,NE,39,2.0,5.0,83,0.00,,,-99.99,111.000000,,2014-01-01 15:22:00,
2014-01-01 10:33:00,40.0,35.0,-100.00,NE,39,2.0,5.0,83,0.00,,,-99.99,111.000000,,2014-01-01 15:33:00,
2014-01-01 10:43:00,40.0,35.0,-100.00,NE,39,2.0,5.0,83,0.00,,,-99.99,111.000000,,2014-01-01 15:43:00,
2014-01-01 10:53:00,40.0,35.0,-100.00,NE,39,2.0,5.0,83,0.00,,,-99.99,111.000000,,2014-01-01 15:53:00,
2014-01-01 11:02:00,43.0,36.0,-100.00,East,90,3.0,5.0,76,0.00,,,-99.99,160.000000,,2014-01-01 16:02:00,
2014-01-01 11:43:00,43.0,36.0,-100.00,East,90,3.0,5.0,76,0.00,,,-99.99,160.000000,,2014-01-01 16:43:00,
2014-01-01 11:53:00,43.0,36.0,-100.00,East,90,3.0,5.0,76,0.00,,,-99.99,160.000000,,2014-01-01 16:53:00,
2014-01-01 12:02:00,46.0,36.0,-100.00,ESE,120,1.0,5.0,69,0.00,,,-99.99,179.000000,,2014-01-01 17:02:00,
2014-01-01 12:43:00,46.0,36.0,-100.00,ESE,120,1.0,5.0,69,0.00,,,-99.99,179.000000,,2014-01-01 17:43:00,
2014-01-01 12:52:00,46.0,36.0,-100.00,ESE,120,1.0,5.0,69,0.00,,,-99.99,179.000000,,2014-01-01 17:52:00,
2014-01-01 13:02:00,46.0,37.0,-100.00,NE,35,3.0,5.0,70,0.00,,,-99.99,135.000000,,2014-01-01 18:02:00,
2014-01-01 13:42:00,46.0,37.0,-100.00,NE,35,3.0,5.0,70,0.00,,,-99.99,135.000000,,2014-01-01 18:42:00,
2014-01-01 13:53:00,46.0,37.0,-100.00,NE,35,3.0,5.0,70,0.00,,,-99.99,135.000000,,2014-01-01 18:53:00,
2014-01-01 14:02:00,47.0,37.0,-100.00,NNW,347,2.0,4.0,69,0.00,,,-99.99,124.000000,,2014-01-01 19:02:00,
2014-01-01 14:42:00,47.0,37.0,-100.00,NNW,347,2.0,4.0,69,0.00,,,-99.99,124.000000,,2014-01-01 19:42:00,
2014-01-01 14:53:00,47.0,37.0,-100.00,NNW,347,2.0,4.0,69,0.00,,,-99.99,124.000000,,2014-01-01 19:53:00,
2014-01-01 15:02:00,48.0,38.0,-100.00,ESE,121,2.0,4.0,67,0.00,,,-99.99,138.000000,,2014-01-01 20:02:00,
2014-01-01 15:42:00,48.0,38.0,-100.00,ESE,121,2.0,4.0,67,0.00,,,-99.99,138.000000,,2014-01-01 20:42:00,
2014-01-01 15:53:00,48.0,38.0,-100.00,ESE,121,2.0,4.0,67,0.00,,,-99.99,138.000000,,2014-01-01 20:53:00,
2014-01-01 16:02:00,48.0,39.0,-100.00,ESE,104,3.0,5.0,71,0.00,,,-99.99,95.000000,,2014-01-01 21:02:00,
2014-01-01 16:43:00,48.0,39.0,-100.00,ESE,104,3.0,5.0,71,0.00,,,-99.99,95.000000,,2014-01-01 21:43:00,
2014-01-01 16:54:00,48.0,39.0,-100.00,ESE,104,3.0,5.0,71,0.00,,,-99.99,95.000000,,2014-01-01 21:54:00,
2014-01-01 17:02:00,47.0,40.0,-100.00,North,5,2.0,4.0,77,0.00,,,-99.99,44.000000,,2014-01-01 22:02:00,
2014-01-01 17:42:00,47.0,40.0,-100.00,North,5,2.0,4.0,77,0.00,,,-99.99,44.000000,,2014-01-01 22:42:00,
2014-01-01 17:53:00,47.0,40.0,-100.00,North,5,2.0,4.0,77,0.00,,,-99.99,44.000000,,2014-01-01 22:53:00,
2014-01-01 18:02:00,45.0,41.0,-100.00,East,95,2.0,4.0,87,0.00,,,-99.99,3.000000,,2014-01-01 23:02:00,
2014-01-01 18:43:00,45.0,41.0,-100.00,East,95,2.0,4.0,87,0.00,,,-99.99,3.000000,,2014-01-01 23:43:00,
2014-01-01 18:53:00,45.0,41.0,-100.00,East,95,2.0,4.0,87,0.00,,,-99.99,3.000000,,2014-01-01 23:53:00,
2014-01-01 19:02:00,45.0,42.0,-100.00,North,-999,0.0,0.0,88,0.00,,,0.00,0.000000,,2014-01-02 00:02:00,
2014-01-01 19:22:00,45.0,42.0,-100.00,North,-999,0.0,0.0,88,0.00,,,0.00,0.000000,,2014-01-02 00:22:00,
2014-01-01 19:32:00,45.0,42.0,-100.00,North,-999,0.0,0.0,88,0.00,,,0.00,0.000000,,2014-01-02 00:32:00,
2014-01-01 19:42:00,45.0,42.0,-100.00,North,-999,0.0,0.0,88,0.00,,,0.00,0.000000,,2014-01-02 00:42:00,
2014-01-01 19:52:00,45.0,42.0,-100.00,North,-999,0.0,0.0,88,0.00,,,0.00,0.000000,,2014-01-02 00:52:00,
2014-01-01 20:02:00,45.0,42.0,-100.00,NE,56,1.0,3.0,88,0.00,,,0.00,0.000000,,2014-01-02 01:02:00,
2014-01-01 20:42:00,45.0,42.0,-100.00,NE,56,1.0,3.0,88,0.00,,,0.00,0.000000,,2014-01-02 01:42:00,
2014-01-01 20:52:00,45.0,42.0,-100.00,NE,56,1.0,3.0,88,0.00,,,0.00,0.000000,,2014-01-02 01:52:00,
2014-01-01 21:02:00,45.0,42.0,-100.00,East,101,2.0,3.0,90,0.00,,,0.00,0.000000,,2014-01-02 02:02:00,
2014-01-01 21:52:00,45.0,42.0,-100.00,East,101,2.0,3.0,90,0.00,,,0.00,0.000000,,2014-01-02 02:52:00,
2014-01-01 22:02:00,45.0,42.0,-100.00,North,-999,0.0,4.0,88,0.00,,,0.00,0.000000,,2014-01-02 03:02:00,
2014-01-01 22:43:00,45.0,42.0,-100.00,North,-999,0.0,4.0,88,0.00,,,0.00,0.000000,,2014-01-02 03:43:00,
2014-01-01 22:53:00,45.0,42.0,-100.00,North,-999,0.0,4.0,88,0.00,,,0.00,0.000000,,2014-01-02 03:53:00,
2014-01-01 23:02:00,44.0,41.0,-100.00,NNE,18,1.0,3.0,90,0.00,,,0.00,0.000000,,2014-01-02 04:02:00,
2014-01-01 23:43:00,44.0,41.0,-100.00,NNE,18,1.0,3.0,90,0.00,,,0.00,0.000000,,2014-01-02 04:43:00,
2014-01-01 23:53:00,44.0,41.0,-100.00,NNE,18,1.0,3.0,90,0.00,,,0.00,0.000000,,2014-01-02 04:53:00,